sensor_id;sensor_type;location;lat;lon;timestamp;temperature;humidity
484;DHT22;228;48.922;12.198;2023-06-04T04:00:28;13.80;48.60
484;DHT22;228;48.922;12.198;2023-06-04T04:02:57;13.90;48.60
484;DHT22;228;48.922;12.198;2023-06-04T04:05:27;14.00;48.10
484;DHT22;228;48.922;12.198;2023-06-04T04:07:54;13.90;48.50
484;DHT22;228;48.922;12.198;2023-06-04T04:10:24;13.80;49.10
484;DHT22;228;48.922;12.198;2023-06-04T04:12:50;13.80;49.10
484;DHT22;228;48.922;12.198;2023-06-04T04:15:19;14.00;49.30
484;DHT22;228;48.922;12.198;2023-06-04T04:17:45;13.90;49.20
484;DHT22;228;48.922;12.198;2023-06-04T04:20:11;13.70;49.20
484;DHT22;228;48.922;12.198;2023-06-04T04:22:44;13.90;49.20
484;DHT22;228;48.922;12.198;2023-06-04T04:25:12;14.00;49.40
484;DHT22;228;48.922;12.198;2023-06-04T04:27:38;14.00;49.60
484;DHT22;228;48.922;12.198;2023-06-04T04:30:08;13.70;49.70
484;DHT22;228;48.922;12.198;2023-06-04T04:32:36;13.80;50.20
484;DHT22;228;48.922;12.198;2023-06-04T04:35:07;13.80;50.60
484;DHT22;228;48.922;12.198;2023-06-04T04:37:36;14.10;50.80
484;DHT22;228;48.922;12.198;2023-06-04T04:40:06;14.20;50.50
484;DHT22;228;48.922;12.198;2023-06-04T04:42:36;14.40;50.10
484;DHT22;228;48.922;12.198;2023-06-04T04:45:04;14.50;49.10
484;DHT22;228;48.922;12.198;2023-06-04T04:47:31;14.60;49.60
484;DHT22;228;48.922;12.198;2023-06-04T04:49:57;14.30;49.50
484;DHT22;228;48.922;12.198;2023-06-04T04:52:24;14.40;49.70
484;DHT22;228;48.922;12.198;2023-06-04T04:54:51;14.60;48.90
484;DHT22;228;48.922;12.198;2023-06-04T04:57:22;14.80;48.80
484;DHT22;228;48.922;12.198;2023-06-04T04:59:51;14.80;48.60
484;DHT22;228;48.922;12.198;2023-06-04T05:02:17;14.80;49.40
484;DHT22;228;48.922;12.198;2023-06-04T05:04:43;15.00;49.00
484;DHT22;228;48.922;12.198;2023-06-04T05:07:10;15.30;48.70
484;DHT22;228;48.922;12.198;2023-06-04T05:09:37;15.50;48.70
484;DHT22;228;48.922;12.198;2023-06-04T05:12:03;15.50;47.90
484;DHT22;228;48.922;12.198;2023-06-04T05:14:31;15.60;47.90
484;DHT22;228;48.922;12.198;2023-06-04T05:16:57;15.60;47.10
484;DHT22;228;48.922;12.198;2023-06-04T05:19:24;15.50;48.00
484;DHT22;228;48.922;12.198;2023-06-04T05:21:50;15.60;48.20
484;DHT22;228;48.922;12.198;2023-06-04T05:24:17;16.00;47.50
484;DHT22;228;48.922;12.198;2023-06-04T05:26:43;16.20;47.20
484;DHT22;228;48.922;12.198;2023-06-04T05:29:15;16.20;47.00
484;DHT22;228;48.922;12.198;2023-06-04T05:31:43;16.40;46.30
484;DHT22;228;48.922;12.198;2023-06-04T05:34:12;16.60;45.90
484;DHT22;228;48.922;12.198;2023-06-04T05:36:42;16.50;46.00
484;DHT22;228;48.922;12.198;2023-06-04T05:39:12;16.40;46.10
484;DHT22;228;48.922;12.198;2023-06-04T05:41:47;16.50;46.30
484;DHT22;228;48.922;12.198;2023-06-04T05:44:14;16.80;46.70
484;DHT22;228;48.922;12.198;2023-06-04T05:46:40;17.10;44.70
484;DHT22;228;48.922;12.198;2023-06-04T05:49:06;17.10;45.20
484;DHT22;228;48.922;12.198;2023-06-04T05:51:32;17.10;44.80
484;DHT22;228;48.922;12.198;2023-06-04T05:53:59;17.20;45.00
484;DHT22;228;48.922;12.198;2023-06-04T05:56:24;17.20;45.00
484;DHT22;228;48.922;12.198;2023-06-04T05:58:53;17.20;44.80
484;DHT22;228;48.922;12.198;2023-06-04T06:01:20;17.30;44.60
484;DHT22;228;48.922;12.198;2023-06-04T06:03:48;17.50;43.20
484;DHT22;228;48.922;12.198;2023-06-04T06:06:14;17.90;43.70
484;DHT22;228;48.922;12.198;2023-06-04T06:08:40;17.70;42.90
484;DHT22;228;48.922;12.198;2023-06-04T06:11:07;17.70;43.30
484;DHT22;228;48.922;12.198;2023-06-04T06:13:34;17.60;43.10
484;DHT22;228;48.922;12.198;2023-06-04T06:16:01;17.80;43.50
484;DHT22;228;48.922;12.198;2023-06-04T06:18:29;17.60;42.20
484;DHT22;228;48.922;12.198;2023-06-04T06:20:56;17.40;43.40
484;DHT22;228;48.922;12.198;2023-06-04T06:23:23;17.60;43.40
484;DHT22;228;48.922;12.198;2023-06-04T06:25:50;17.90;42.00
484;DHT22;228;48.922;12.198;2023-06-04T06:28:23;18.20;41.80
484;DHT22;228;48.922;12.198;2023-06-04T06:30:50;18.10;41.60
484;DHT22;228;48.922;12.198;2023-06-04T06:33:16;18.30;41.50
484;DHT22;228;48.922;12.198;2023-06-04T06:35:42;18.30;41.60
484;DHT22;228;48.922;12.198;2023-06-04T06:38:08;18.30;43.10
484;DHT22;228;48.922;12.198;2023-06-04T06:40:34;18.40;41.70
484;DHT22;228;48.922;12.198;2023-06-04T06:43:01;18.80;41.60
484;DHT22;228;48.922;12.198;2023-06-04T06:45:27;19.20;41.60
484;DHT22;228;48.922;12.198;2023-06-04T06:47:52;19.70;40.70
484;DHT22;228;48.922;12.198;2023-06-04T06:50:18;19.60;40.90
484;DHT22;228;48.922;12.198;2023-06-04T06:52:45;19.60;42.00
484;DHT22;228;48.922;12.198;2023-06-04T06:55:11;19.70;41.60
484;DHT22;228;48.922;12.198;2023-06-04T06:57:37;19.60;39.40
484;DHT22;228;48.922;12.198;2023-06-04T07:00:03;19.80;38.50
484;DHT22;228;48.922;12.198;2023-06-04T07:02:31;20.10;39.50
484;DHT22;228;48.922;12.198;2023-06-04T07:04:57;19.80;39.40
484;DHT22;228;48.922;12.198;2023-06-04T07:07:23;20.20;39.70
484;DHT22;228;48.922;12.198;2023-06-04T07:09:49;20.20;39.60
484;DHT22;228;48.922;12.198;2023-06-04T07:12:15;20.30;39.50
484;DHT22;228;48.922;12.198;2023-06-04T07:14:42;20.30;39.50
484;DHT22;228;48.922;12.198;2023-06-04T07:17:08;20.30;38.20
484;DHT22;228;48.922;12.198;2023-06-04T07:19:34;20.40;39.20
484;DHT22;228;48.922;12.198;2023-06-04T07:22:00;20.60;38.90
484;DHT22;228;48.922;12.198;2023-06-04T07:24:26;20.80;38.40
484;DHT22;228;48.922;12.198;2023-06-04T07:26:52;21.10;38.20
484;DHT22;228;48.922;12.198;2023-06-04T07:29:18;21.40;38.20
484;DHT22;228;48.922;12.198;2023-06-04T07:31:44;21.10;38.20
484;DHT22;228;48.922;12.198;2023-06-04T07:34:11;21.10;38.50
484;DHT22;228;48.922;12.198;2023-06-04T07:36:37;21.40;38.20
484;DHT22;228;48.922;12.198;2023-06-04T07:39:03;21.80;38.20
484;DHT22;228;48.922;12.198;2023-06-04T07:41:31;21.50;37.50
484;DHT22;228;48.922;12.198;2023-06-04T07:43:57;21.80;37.60
484;DHT22;228;48.922;12.198;2023-06-04T07:46:23;21.60;36.20
484;DHT22;228;48.922;12.198;2023-06-04T07:48:49;21.70;35.20
484;DHT22;228;48.922;12.198;2023-06-04T07:51:15;21.70;37.10
484;DHT22;228;48.922;12.198;2023-06-04T07:53:41;21.90;35.60
484;DHT22;228;48.922;12.198;2023-06-04T07:56:08;22.50;35.20
484;DHT22;228;48.922;12.198;2023-06-04T07:58:34;22.90;33.90
484;DHT22;228;48.922;12.198;2023-06-04T08:01:00;23.00;33.70
484;DHT22;228;48.922;12.198;2023-06-04T08:03:26;23.00;34.20
484;DHT22;228;48.922;12.198;2023-06-04T08:05:52;22.80;33.20
484;DHT22;228;48.922;12.198;2023-06-04T08:08:18;23.10;33.90
484;DHT22;228;48.922;12.198;2023-06-04T08:10:44;23.40;34.30
484;DHT22;228;48.922;12.198;2023-06-04T08:13:11;23.80;30.20
484;DHT22;228;48.922;12.198;2023-06-04T08:15:37;23.70;30.20
484;DHT22;228;48.922;12.198;2023-06-04T08:18:22;23.70;33.50
484;DHT22;228;48.922;12.198;2023-06-04T08:21:11;23.50;33.30
484;DHT22;228;48.922;12.198;2023-06-04T08:23:57;23.90;33.30
484;DHT22;228;48.922;12.198;2023-06-04T08:26:43;23.90;32.10
484;DHT22;228;48.922;12.198;2023-06-04T08:29:17;24.00;31.80
484;DHT22;228;48.922;12.198;2023-06-04T08:31:45;24.30;32.10
484;DHT22;228;48.922;12.198;2023-06-04T08:34:23;24.60;31.30
484;DHT22;228;48.922;12.198;2023-06-04T08:36:49;24.50;31.80
484;DHT22;228;48.922;12.198;2023-06-04T08:39:15;24.50;30.10
484;DHT22;228;48.922;12.198;2023-06-04T08:41:51;24.50;31.00
484;DHT22;228;48.922;12.198;2023-06-04T08:44:18;24.20;30.00
484;DHT22;228;48.922;12.198;2023-06-04T08:46:44;23.90;29.60
484;DHT22;228;48.922;12.198;2023-06-04T08:49:13;23.70;30.60
484;DHT22;228;48.922;12.198;2023-06-04T08:51:39;23.30;31.00
484;DHT22;228;48.922;12.198;2023-06-04T08:54:07;23.40;32.60
484;DHT22;228;48.922;12.198;2023-06-04T08:56:35;23.50;30.70
484;DHT22;228;48.922;12.198;2023-06-04T08:59:09;23.80;30.20
484;DHT22;228;48.922;12.198;2023-06-04T09:01:36;23.70;30.40
484;DHT22;228;48.922;12.198;2023-06-04T09:04:06;23.60;30.00
484;DHT22;228;48.922;12.198;2023-06-04T09:06:36;24.10;33.80
484;DHT22;228;48.922;12.198;2023-06-04T09:09:05;24.70;29.10
484;DHT22;228;48.922;12.198;2023-06-04T09:11:44;24.80;29.70
484;DHT22;228;48.922;12.198;2023-06-04T09:14:14;25.20;29.90
484;DHT22;228;48.922;12.198;2023-06-04T09:16:49;25.10;29.90
484;DHT22;228;48.922;12.198;2023-06-04T09:19:18;24.70;29.60
484;DHT22;228;48.922;12.198;2023-06-04T09:21:57;24.30;29.80
484;DHT22;228;48.922;12.198;2023-06-04T09:24:26;24.50;31.10
484;DHT22;228;48.922;12.198;2023-06-04T09:27:14;24.60;29.40
484;DHT22;228;48.922;12.198;2023-06-04T09:30:10;25.00;32.00
484;DHT22;228;48.922;12.198;2023-06-04T09:32:36;24.80;30.10
484;DHT22;228;48.922;12.198;2023-06-04T09:35:19;24.70;33.20
484;DHT22;228;48.922;12.198;2023-06-04T09:37:53;24.90;30.70
484;DHT22;228;48.922;12.198;2023-06-04T09:40:21;24.50;33.50
484;DHT22;228;48.922;12.198;2023-06-04T09:42:49;24.60;32.40
484;DHT22;228;48.922;12.198;2023-06-04T09:45:31;24.80;31.30
484;DHT22;228;48.922;12.198;2023-06-04T09:48:02;25.00;30.30
484;DHT22;228;48.922;12.198;2023-06-04T09:50:33;24.70;33.70
484;DHT22;228;48.922;12.198;2023-06-04T09:53:00;24.60;32.40
484;DHT22;228;48.922;12.198;2023-06-04T09:55:27;25.10;30.90
484;DHT22;228;48.922;12.198;2023-06-04T09:57:53;25.20;31.90
484;DHT22;228;48.922;12.198;2023-06-04T10:00:21;25.30;29.80
484;DHT22;228;48.922;12.198;2023-06-04T10:02:53;25.60;30.70
484;DHT22;228;48.922;12.198;2023-06-04T10:05:22;26.00;29.90
484;DHT22;228;48.922;12.198;2023-06-04T10:07:51;25.60;28.70
484;DHT22;228;48.922;12.198;2023-06-04T10:10:25;25.60;32.50
484;DHT22;228;48.922;12.198;2023-06-04T10:13:01;25.80;31.40
484;DHT22;228;48.922;12.198;2023-06-04T10:15:32;26.40;31.90
484;DHT22;228;48.922;12.198;2023-06-04T10:18:00;26.40;29.50
484;DHT22;228;48.922;12.198;2023-06-04T10:20:28;26.60;30.00
484;DHT22;228;48.922;12.198;2023-06-04T10:22:55;26.90;29.60
484;DHT22;228;48.922;12.198;2023-06-04T10:25:21;26.00;33.20
484;DHT22;228;48.922;12.198;2023-06-04T10:27:49;26.10;30.10
484;DHT22;228;48.922;12.198;2023-06-04T10:30:16;26.00;29.80
484;DHT22;228;48.922;12.198;2023-06-04T10:32:42;26.40;31.10
484;DHT22;228;48.922;12.198;2023-06-04T10:35:08;26.70;30.40
484;DHT22;228;48.922;12.198;2023-06-04T10:37:35;27.10;29.10
484;DHT22;228;48.922;12.198;2023-06-04T10:40:01;26.90;30.00
484;DHT22;228;48.922;12.198;2023-06-04T10:42:41;26.80;29.20
484;DHT22;228;48.922;12.198;2023-06-04T10:45:09;26.70;30.80
484;DHT22;228;48.922;12.198;2023-06-04T10:47:35;26.60;29.40
484;DHT22;228;48.922;12.198;2023-06-04T10:50:12;26.50;27.70
484;DHT22;228;48.922;12.198;2023-06-04T10:52:51;26.30;29.10
484;DHT22;228;48.922;12.198;2023-06-04T10:55:18;26.30;28.90
484;DHT22;228;48.922;12.198;2023-06-04T10:57:56;26.70;28.00
484;DHT22;228;48.922;12.198;2023-06-04T11:00:44;27.20;28.10
484;DHT22;228;48.922;12.198;2023-06-04T11:03:15;26.90;29.30
484;DHT22;228;48.922;12.198;2023-06-04T11:05:46;26.80;26.90
484;DHT22;228;48.922;12.198;2023-06-04T11:08:26;26.70;30.00
484;DHT22;228;48.922;12.198;2023-06-04T11:10:56;27.40;30.30
484;DHT22;228;48.922;12.198;2023-06-04T11:13:24;27.20;26.60
484;DHT22;228;48.922;12.198;2023-06-04T11:15:51;27.50;27.20
484;DHT22;228;48.922;12.198;2023-06-04T11:18:20;27.50;28.30
484;DHT22;228;48.922;12.198;2023-06-04T11:20:48;28.00;26.70
484;DHT22;228;48.922;12.198;2023-06-04T11:23:16;28.10;24.80
484;DHT22;228;48.922;12.198;2023-06-04T11:25:43;27.40;25.40
484;DHT22;228;48.922;12.198;2023-06-04T11:28:15;26.90;26.50
484;DHT22;228;48.922;12.198;2023-06-04T11:30:43;26.80;25.90
484;DHT22;228;48.922;12.198;2023-06-04T11:33:09;27.10;26.50
484;DHT22;228;48.922;12.198;2023-06-04T11:35:42;27.50;26.30
484;DHT22;228;48.922;12.198;2023-06-04T11:38:09;29.30;23.90
484;DHT22;228;48.922;12.198;2023-06-04T11:40:35;31.80;21.70
484;DHT22;228;48.922;12.198;2023-06-04T11:43:03;34.20;22.60
484;DHT22;228;48.922;12.198;2023-06-04T11:45:29;36.60;19.30
484;DHT22;228;48.922;12.198;2023-06-04T11:47:57;37.20;18.00
484;DHT22;228;48.922;12.198;2023-06-04T11:50:26;36.70;20.20
484;DHT22;228;48.922;12.198;2023-06-04T11:52:53;36.50;20.10
484;DHT22;228;48.922;12.198;2023-06-04T11:55:20;38.00;19.20
484;DHT22;228;48.922;12.198;2023-06-04T11:57:46;38.90;17.20
484;DHT22;228;48.922;12.198;2023-06-04T12:00:14;40.20;17.00
484;DHT22;228;48.922;12.198;2023-06-04T12:02:59;39.20;17.80
484;DHT22;228;48.922;12.198;2023-06-04T12:05:29;40.80;17.50
484;DHT22;228;48.922;12.198;2023-06-04T12:08:07;42.90;16.80
484;DHT22;228;48.922;12.198;2023-06-04T12:10:40;43.00;16.00
484;DHT22;228;48.922;12.198;2023-06-04T12:13:09;42.70;16.40
484;DHT22;228;48.922;12.198;2023-06-04T12:15:36;41.00;16.60
484;DHT22;228;48.922;12.198;2023-06-04T12:18:02;41.40;17.60
484;DHT22;228;48.922;12.198;2023-06-04T12:20:33;41.40;17.60
484;DHT22;228;48.922;12.198;2023-06-04T12:23:00;40.50;17.20
484;DHT22;228;48.922;12.198;2023-06-04T12:25:28;40.70;16.30
484;DHT22;228;48.922;12.198;2023-06-04T12:27:55;41.60;15.90
484;DHT22;228;48.922;12.198;2023-06-04T12:30:22;40.50;16.90
484;DHT22;228;48.922;12.198;2023-06-04T12:32:49;40.50;18.50
484;DHT22;228;48.922;12.198;2023-06-04T12:35:16;41.00;16.00
484;DHT22;228;48.922;12.198;2023-06-04T12:37:42;42.80;15.40
484;DHT22;228;48.922;12.198;2023-06-04T12:40:08;44.20;16.20
484;DHT22;228;48.922;12.198;2023-06-04T12:42:35;45.90;15.70
484;DHT22;228;48.922;12.198;2023-06-04T12:45:01;45.40;14.90
484;DHT22;228;48.922;12.198;2023-06-04T12:47:27;43.80;14.60
484;DHT22;228;48.922;12.198;2023-06-04T12:49:53;44.00;14.40
484;DHT22;228;48.922;12.198;2023-06-04T12:52:19;44.60;13.70
484;DHT22;228;48.922;12.198;2023-06-04T12:54:45;44.00;13.40
484;DHT22;228;48.922;12.198;2023-06-04T12:57:11;43.70;14.80
484;DHT22;228;48.922;12.198;2023-06-04T12:59:37;43.40;16.40
484;DHT22;228;48.922;12.198;2023-06-04T13:02:03;43.40;15.80
484;DHT22;228;48.922;12.198;2023-06-04T13:04:29;43.40;16.40
484;DHT22;228;48.922;12.198;2023-06-04T13:06:56;44.00;15.70
484;DHT22;228;48.922;12.198;2023-06-04T13:09:25;43.50;15.70
484;DHT22;228;48.922;12.198;2023-06-04T13:11:51;43.50;15.70
484;DHT22;228;48.922;12.198;2023-06-04T13:14:17;44.70;15.70
484;DHT22;228;48.922;12.198;2023-06-04T13:16:43;46.20;15.00
484;DHT22;228;48.922;12.198;2023-06-04T13:19:11;46.40;13.70
484;DHT22;228;48.922;12.198;2023-06-04T13:21:37;44.60;13.40
484;DHT22;228;48.922;12.198;2023-06-04T13:24:03;43.70;14.50
484;DHT22;228;48.922;12.198;2023-06-04T13:26:29;44.80;14.30
484;DHT22;228;48.922;12.198;2023-06-04T13:28:55;45.80;15.70
484;DHT22;228;48.922;12.198;2023-06-04T13:31:21;43.20;15.60
484;DHT22;228;48.922;12.198;2023-06-04T13:33:47;43.90;14.30
484;DHT22;228;48.922;12.198;2023-06-04T13:36:13;42.30;14.40
484;DHT22;228;48.922;12.198;2023-06-04T13:38:39;41.80;15.40
484;DHT22;228;48.922;12.198;2023-06-04T13:41:06;42.00;15.40
484;DHT22;228;48.922;12.198;2023-06-04T13:43:32;40.40;16.90
484;DHT22;228;48.922;12.198;2023-06-04T13:45:58;39.70;17.50
484;DHT22;228;48.922;12.198;2023-06-04T13:48:24;40.90;17.70
484;DHT22;228;48.922;12.198;2023-06-04T13:50:50;42.20;15.70
484;DHT22;228;48.922;12.198;2023-06-04T13:53:16;44.20;14.50
484;DHT22;228;48.922;12.198;2023-06-04T13:55:43;45.40;15.70
484;DHT22;228;48.922;12.198;2023-06-04T13:58:09;43.40;15.10
484;DHT22;228;48.922;12.198;2023-06-04T14:00:35;41.00;16.00
484;DHT22;228;48.922;12.198;2023-06-04T14:03:01;39.50;15.90
484;DHT22;228;48.922;12.198;2023-06-04T14:05:29;40.40;17.10
484;DHT22;228;48.922;12.198;2023-06-04T14:07:56;41.50;17.10
484;DHT22;228;48.922;12.198;2023-06-04T14:10:22;42.30;15.40
484;DHT22;228;48.922;12.198;2023-06-04T14:12:48;44.20;14.70
484;DHT22;228;48.922;12.198;2023-06-04T14:15:14;44.20;15.90
484;DHT22;228;48.922;12.198;2023-06-04T14:17:41;44.50;15.80
484;DHT22;228;48.922;12.198;2023-06-04T14:20:07;44.30;15.20
484;DHT22;228;48.922;12.198;2023-06-04T14:22:35;44.70;14.10
484;DHT22;228;48.922;12.198;2023-06-04T14:25:06;46.60;16.00
484;DHT22;228;48.922;12.198;2023-06-04T14:27:33;47.30;13.70
484;DHT22;228;48.922;12.198;2023-06-04T14:30:06;47.10;13.70
484;DHT22;228;48.922;12.198;2023-06-04T14:32:32;44.60;15.10
484;DHT22;228;48.922;12.198;2023-06-04T14:34:59;42.20;14.80
484;DHT22;228;48.922;12.198;2023-06-04T14:37:25;40.20;16.10
484;DHT22;228;48.922;12.198;2023-06-04T14:39:51;39.20;16.80
484;DHT22;228;48.922;12.198;2023-06-04T14:42:17;37.90;17.50
484;DHT22;228;48.922;12.198;2023-06-04T14:44:43;39.20;19.00
484;DHT22;228;48.922;12.198;2023-06-04T14:47:10;41.50;16.20
484;DHT22;228;48.922;12.198;2023-06-04T14:49:36;43.80;15.50
484;DHT22;228;48.922;12.198;2023-06-04T14:52:03;43.50;16.60
484;DHT22;228;48.922;12.198;2023-06-04T14:54:29;42.50;14.70
484;DHT22;228;48.922;12.198;2023-06-04T14:56:55;43.30;15.10
484;DHT22;228;48.922;12.198;2023-06-04T14:59:21;42.00;14.30
484;DHT22;228;48.922;12.198;2023-06-04T15:01:48;41.40;15.20
484;DHT22;228;48.922;12.198;2023-06-04T15:04:13;41.60;16.80
484;DHT22;228;48.922;12.198;2023-06-04T15:06:39;40.50;16.30
484;DHT22;228;48.922;12.198;2023-06-04T15:09:06;39.10;17.70
484;DHT22;228;48.922;12.198;2023-06-04T15:11:32;37.40;18.50
484;DHT22;228;48.922;12.198;2023-06-04T15:13:58;37.60;19.00
484;DHT22;228;48.922;12.198;2023-06-04T15:16:24;39.00;17.90
484;DHT22;228;48.922;12.198;2023-06-04T15:18:50;40.60;16.30
484;DHT22;228;48.922;12.198;2023-06-04T15:21:17;40.90;16.50
484;DHT22;228;48.922;12.198;2023-06-04T15:23:43;41.20;16.40
484;DHT22;228;48.922;12.198;2023-06-04T15:26:15;40.50;17.40
484;DHT22;228;48.922;12.198;2023-06-04T15:28:41;41.00;18.00
484;DHT22;228;48.922;12.198;2023-06-04T15:31:07;40.30;15.90
484;DHT22;228;48.922;12.198;2023-06-04T15:33:33;38.00;17.20
484;DHT22;228;48.922;12.198;2023-06-04T15:35:59;36.40;19.60
484;DHT22;228;48.922;12.198;2023-06-04T15:38:25;33.90;20.70
484;DHT22;228;48.922;12.198;2023-06-04T15:40:51;31.90;22.30
484;DHT22;228;48.922;12.198;2023-06-04T15:43:18;31.30;23.20
484;DHT22;228;48.922;12.198;2023-06-04T15:45:44;31.70;22.30
484;DHT22;228;48.922;12.198;2023-06-04T15:48:10;31.50;23.40
484;DHT22;228;48.922;12.198;2023-06-04T15:50:36;31.10;22.40
484;DHT22;228;48.922;12.198;2023-06-04T15:53:03;31.40;22.40
484;DHT22;228;48.922;12.198;2023-06-04T15:55:29;32.20;22.80
484;DHT22;228;48.922;12.198;2023-06-04T15:57:55;31.40;22.30
484;DHT22;228;48.922;12.198;2023-06-04T16:00:21;31.20;22.50
484;DHT22;228;48.922;12.198;2023-06-04T16:02:48;31.60;22.50
484;DHT22;228;48.922;12.198;2023-06-04T16:05:15;31.90;23.80
484;DHT22;228;48.922;12.198;2023-06-04T16:07:43;32.10;23.70
484;DHT22;228;48.922;12.198;2023-06-04T16:10:09;33.10;21.50
484;DHT22;228;48.922;12.198;2023-06-04T16:12:35;33.10;22.30
484;DHT22;228;48.922;12.198;2023-06-04T16:15:02;33.40;22.80
484;DHT22;228;48.922;12.198;2023-06-04T16:17:30;31.90;22.30
484;DHT22;228;48.922;12.198;2023-06-04T16:19:56;31.80;24.10
484;DHT22;228;48.922;12.198;2023-06-04T16:22:28;31.60;24.30
484;DHT22;228;48.922;12.198;2023-06-04T16:24:54;31.10;23.70
484;DHT22;228;48.922;12.198;2023-06-04T16:27:20;30.90;24.60
484;DHT22;228;48.922;12.198;2023-06-04T16:29:46;30.40;24.60
484;DHT22;228;48.922;12.198;2023-06-04T16:32:13;29.70;25.20
484;DHT22;228;48.922;12.198;2023-06-04T16:34:40;29.70;24.50
484;DHT22;228;48.922;12.198;2023-06-04T16:37:06;29.50;25.50
484;DHT22;228;48.922;12.198;2023-06-04T16:39:33;29.50;25.20
484;DHT22;228;48.922;12.198;2023-06-04T16:41:59;28.90;25.80
484;DHT22;228;48.922;12.198;2023-06-04T16:44:27;28.90;26.50
484;DHT22;228;48.922;12.198;2023-06-04T16:46:55;28.40;27.50
484;DHT22;228;48.922;12.198;2023-06-04T16:49:21;28.10;27.70
484;DHT22;228;48.922;12.198;2023-06-04T16:51:47;28.30;29.00
484;DHT22;228;48.922;12.198;2023-06-04T16:54:13;28.80;27.50
484;DHT22;228;48.922;12.198;2023-06-04T16:56:39;28.80;27.60
484;DHT22;228;48.922;12.198;2023-06-04T16:59:06;28.80;27.50
484;DHT22;228;48.922;12.198;2023-06-04T17:01:33;28.50;27.00
484;DHT22;228;48.922;12.198;2023-06-04T17:04:00;28.40;27.70
484;DHT22;228;48.922;12.198;2023-06-04T17:06:26;28.40;28.10
484;DHT22;228;48.922;12.198;2023-06-04T17:08:53;28.40;28.40
484;DHT22;228;48.922;12.198;2023-06-04T17:11:19;27.80;27.80
484;DHT22;228;48.922;12.198;2023-06-04T17:13:45;27.30;29.30
484;DHT22;228;48.922;12.198;2023-06-04T17:16:11;27.20;29.60
484;DHT22;228;48.922;12.198;2023-06-04T17:18:39;27.00;29.60
484;DHT22;228;48.922;12.198;2023-06-04T17:21:05;26.70;28.80
484;DHT22;228;48.922;12.198;2023-06-04T17:23:30;27.00;29.60
484;DHT22;228;48.922;12.198;2023-06-04T17:25:56;26.70;28.90
484;DHT22;228;48.922;12.198;2023-06-04T17:28:25;26.80;30.00
484;DHT22;228;48.922;12.198;2023-06-04T17:30:51;26.30;29.30
484;DHT22;228;48.922;12.198;2023-06-04T17:33:17;25.70;30.10
484;DHT22;228;48.922;12.198;2023-06-04T17:35:43;25.60;31.00
484;DHT22;228;48.922;12.198;2023-06-04T17:38:09;25.60;31.70
484;DHT22;228;48.922;12.198;2023-06-04T17:40:35;25.70;30.70
484;DHT22;228;48.922;12.198;2023-06-04T17:43:01;25.90;30.50
484;DHT22;228;48.922;12.198;2023-06-04T17:45:27;25.90;31.60
484;DHT22;228;48.922;12.198;2023-06-04T17:47:53;26.00;30.80
484;DHT22;228;48.922;12.198;2023-06-04T17:50:19;26.10;30.60
484;DHT22;228;48.922;12.198;2023-06-04T17:52:45;26.00;29.90
484;DHT22;228;48.922;12.198;2023-06-04T17:55:12;25.60;30.90
484;DHT22;228;48.922;12.198;2023-06-04T17:57:39;25.30;30.30
484;DHT22;228;48.922;12.198;2023-06-04T18:00:09;25.00;31.10
484;DHT22;228;48.922;12.198;2023-06-04T18:02:39;24.70;30.70
484;DHT22;228;48.922;12.198;2023-06-04T18:05:08;24.60;31.30
484;DHT22;228;48.922;12.198;2023-06-04T18:07:34;24.50;31.40
484;DHT22;228;48.922;12.198;2023-06-04T18:10:01;24.60;31.50
484;DHT22;228;48.922;12.198;2023-06-04T18:12:27;24.80;31.10
484;DHT22;228;48.922;12.198;2023-06-04T18:14:53;25.00;31.70
484;DHT22;228;48.922;12.198;2023-06-04T18:17:19;25.10;30.90
484;DHT22;228;48.922;12.198;2023-06-04T18:19:45;25.10;30.60
484;DHT22;228;48.922;12.198;2023-06-04T18:22:11;25.10;30.90
484;DHT22;228;48.922;12.198;2023-06-04T18:24:37;24.60;31.00
484;DHT22;228;48.922;12.198;2023-06-04T18:27:04;24.50;31.10
484;DHT22;228;48.922;12.198;2023-06-04T18:29:30;24.20;30.60
484;DHT22;228;48.922;12.198;2023-06-04T18:31:57;23.90;30.20
484;DHT22;228;48.922;12.198;2023-06-04T18:34:23;23.70;30.60
484;DHT22;228;48.922;12.198;2023-06-04T18:36:49;23.50;30.60
484;DHT22;228;48.922;12.198;2023-06-04T18:39:20;23.60;30.50
484;DHT22;228;48.922;12.198;2023-06-04T18:41:48;23.70;30.40
484;DHT22;228;48.922;12.198;2023-06-04T18:44:15;23.40;30.10
484;DHT22;228;48.922;12.198;2023-06-04T18:46:41;23.10;29.90
484;DHT22;228;48.922;12.198;2023-06-04T18:49:08;23.30;29.50
484;DHT22;228;48.922;12.198;2023-06-04T18:51:34;23.10;29.50
484;DHT22;228;48.922;12.198;2023-06-04T18:54:00;23.10;29.10
484;DHT22;228;48.922;12.198;2023-06-04T18:56:26;23.00;29.50
484;DHT22;228;48.922;12.198;2023-06-04T18:58:57;23.10;29.10
484;DHT22;228;48.922;12.198;2023-06-04T19:01:25;23.30;29.40
484;DHT22;228;48.922;12.198;2023-06-04T19:03:52;23.50;29.30
484;DHT22;228;48.922;12.198;2023-06-04T19:06:18;23.40;28.90
484;DHT22;228;48.922;12.198;2023-06-04T19:08:44;23.50;29.50
484;DHT22;228;48.922;12.198;2023-06-04T19:11:10;23.60;29.30
484;DHT22;228;48.922;12.198;2023-06-04T19:13:36;23.60;29.00
484;DHT22;228;48.922;12.198;2023-06-04T19:16:02;23.80;29.50
484;DHT22;228;48.922;12.198;2023-06-04T19:18:29;23.60;30.10
484;DHT22;228;48.922;12.198;2023-06-04T19:20:55;23.50;29.30
484;DHT22;228;48.922;12.198;2023-06-04T19:23:21;23.50;29.60
484;DHT22;228;48.922;12.198;2023-06-04T19:25:47;23.70;29.50
484;DHT22;228;48.922;12.198;2023-06-04T19:28:13;23.60;29.70
484;DHT22;228;48.922;12.198;2023-06-04T19:30:42;23.50;29.30
484;DHT22;228;48.922;12.198;2023-06-04T19:33:09;23.30;30.20
484;DHT22;228;48.922;12.198;2023-06-04T19:35:37;23.40;30.30
484;DHT22;228;48.922;12.198;2023-06-04T19:38:03;23.50;30.80
484;DHT22;228;48.922;12.198;2023-06-04T19:40:30;23.60;30.30
484;DHT22;228;48.922;12.198;2023-06-04T19:42:56;23.60;30.20
484;DHT22;228;48.922;12.198;2023-06-04T19:45:24;23.20;30.00
484;DHT22;228;48.922;12.198;2023-06-04T19:47:50;23.10;31.00
484;DHT22;228;48.922;12.198;2023-06-04T19:50:17;23.00;31.00
484;DHT22;228;48.922;12.198;2023-06-04T19:52:44;23.20;32.00
484;DHT22;228;48.922;12.198;2023-06-04T19:55:12;23.30;31.90
484;DHT22;228;48.922;12.198;2023-06-04T19:57:39;23.30;31.30
484;DHT22;228;48.922;12.198;2023-06-04T20:00:06;23.10;31.70
484;DHT22;228;48.922;12.198;2023-06-04T20:02:41;23.00;31.50
484;DHT22;228;48.922;12.198;2023-06-04T20:05:07;22.40;31.90
484;DHT22;228;48.922;12.198;2023-06-04T20:07:33;22.30;32.80
484;DHT22;228;48.922;12.198;2023-06-04T20:10:01;22.50;32.90
484;DHT22;228;48.922;12.198;2023-06-04T20:12:30;22.60;33.70
484;DHT22;228;48.922;12.198;2023-06-04T20:14:56;22.90;33.70
484;DHT22;228;48.922;12.198;2023-06-04T20:17:22;23.00;32.40
484;DHT22;228;48.922;12.198;2023-06-04T20:19:48;23.00;32.10